Sunday, January 20, 2019, 2:24 AM EST
Back to Local

KCQX, Chatham Municipal Airport

Location: Chatham, MA, United States Lat: 41.683
Local Time: 2:24 AM EST ( 7:24 GMT) Lon: -70
Time Zone: US/Eastern Elev: 68 ft

Show me the last for .
Show Decoded

2019-01-20 01:52 METAR KCQX 200652Z AUTO 09013G22KT 4SM RA BR OVC008 03/01 A2995 RMK AO2 CIG
                 006V012 SLP143 P0006 T00280011 =
2019-01-20 00:52 METAR KCQX 200552Z AUTO 09012G19KT 4SM RA BR OVC007 02/01 A3001 RMK AO2 RAB0453
                 SLP165 P0003 60003 T00220006 10022 20000 56049 =
2019-01-20 00:07 METAR KCQX 200507Z AUTO 10011G22KT 3SM -RA BR OVC008 02/01 A3006 RMK AO2 RAB0453
                 CIG 007V011 P0001 T00220006 =
2019-01-19 23:52 METAR KCQX 200452Z AUTO 10011G19KT 8SM OVC010 02/01 A3006 RMK AO2 UPE01RAB01E02
                 CIG 008V014 PRESFR SLP182 P0000 T00220006 400221028 =
2019-01-19 23:05 METAR KCQX 200405Z AUTO 09012G24KT 10SM OVC010 02/00 A3009 RMK AO2 UPE01RAB01E02
                 CIG 007V012 P0000 T00170000 =
2019-01-19 22:52 METAR KCQX 200352Z AUTO 09012G20KT 8SM UP OVC009 02/00 A3008 RMK AO2
                 UPB21E23B51RAB23E51SNE21B28E42 CIG 007V014 SLP188 P0000 T00170000 =
2019-01-19 21:52 METAR KCQX 200252Z AUTO 09010KT 4SM -SN BR OVC009 01/M01 A3016 RMK AO2 CIG
                 006V012 SLP215 P0000 60000 T00111006 56020 =
2019-01-19 21:28 METAR KCQX 200228Z AUTO 10010G20KT 3SM -SN BR BKN007 OVC012 01/M01 A3017 RMK AO2
                 P0000 T00111006 =
2019-01-19 21:18 METAR KCQX 200218Z AUTO 09010KT 2 1/2SM -SN BR BKN008 BKN013 OVC019 01/M01 A3016
                 RMK AO2 P0000 T00061006 =
2019-01-19 20:59 METAR KCQX 200159Z AUTO 09012G19KT 2 1/2SM -SN BR SCT009 BKN014 OVC022 01/M01
                 A3015 RMK AO2 PRESFR P0000 T00061011 =
2019-01-19 20:52 METAR KCQX 200152Z AUTO 10010G17KT 4SM -SN BR BKN009 BKN013 OVC018 01/M01 A3017
                 RMK AO2 SNB11 CIG 007V013 PRESFR SLP219 P0000 T00061011 =
2019-01-19 20:43 METAR KCQX 200143Z AUTO 09009G17KT 3SM -SN BR BKN009 OVC015 01/M01 A3020 RMK AO2
                 SNB11 CIG 007V011 P0000 T00061011 =
2019-01-19 20:39 METAR KCQX 200139Z AUTO 09010G17KT 2 1/2SM -SN BR FEW007 BKN011 OVC017 01/M01
                 A3020 RMK AO2 SNB11 P0000 T00061011 =
2019-01-19 20:30 METAR KCQX 200130Z AUTO 09009KT 2 1/2SM -SN BR BKN009 OVC015 01/M01 A3020 RMK
                 AO2 SNB11 CIG 007V011 P0000 T00061011 =
2019-01-19 20:18 METAR KCQX 200118Z AUTO 09008G18KT 4SM -SN BKN014 OVC020 01/M02 A3021 RMK AO2
                 SNB11 P0000 T00111017 =
2019-01-19 19:52 METAR KCQX 200052Z AUTO 10009G20KT 10SM OVC019 01/M03 A3020 RMK AO2
                 UPB2354E18SNE2354 SLP229 P0000 T00061028 =
2019-01-19 18:52 METAR KCQX 192352Z AUTO 09014KT 4SM -SN BKN015 OVC021 00/M03 A3022 RMK AO2
                 UPE14B32E44SNB44 SLP235 P0000 60000 T00001028 10011 20000 58001 =
2019-01-19 17:52 METAR KCQX 192252Z AUTO 09011KT 8SM UP OVC016 01/M03 A3024 RMK AO2 UPB14 SLP242
                 P0000 T00061028 =
2019-01-19 16:52 METAR KCQX 192152Z AUTO 08010KT 10SM OVC017 01/M03 A3024 RMK AO2 UPB33E36 SLP243
                 P0000 T00111028 =
2019-01-19 15:52 METAR KCQX 192052Z AUTO 08009KT 10SM OVC019 01/M03 A3022 RMK AO2 UPE02 SLP236
                 P0000 60000 T00061028 56012 =
2019-01-19 14:52 METAR KCQX 191952Z AUTO 06010KT 5SM UP OVC016 01/M03 A3023 RMK AO2 UPB35 SLP238
                 P0000 T00061028 =
2019-01-19 13:52 METAR KCQX 191852Z AUTO 06010KT 10SM OVC021 01/M03 A3024 RMK AO2 SLP242
                 T00061033 =
2019-01-19 12:52 METAR KCQX 191752Z AUTO 05010KT 10SM OVC024 01/M03 A3026 RMK AO2 SLP248 60000
                 T00111033 10017 20011 58008 =
2019-01-19 11:52 METAR KCQX 191652Z AUTO 04007KT 10SM OVC023 01/M04 A3029 RMK AO2 SLP259
                 T00111039 =
2019-01-19 10:52 METAR KCQX 191552Z AUTO 04007KT 10SM OVC022 01/M04 A3029 RMK AO2 SLP258
                 T00111039 =
2019-01-19 09:52 METAR KCQX 191452Z AUTO 05009KT 10SM OVC020 01/M03 A3028 RMK AO2
                 UPB32E33SNB23E32 SLP256 P0000 60000 T00111028 51023 =
2019-01-19 09:16 METAR KCQX 191416Z AUTO 00000KT 10SM BKN029 OVC035 02/M04 A3026 RMK AO2
                 T00171039 =
2019-01-19 08:52 METAR KCQX 191352Z AUTO VRB03KT 10SM BKN030 BKN039 OVC047 02/M04 A3026 RMK AO2
                 SLP247 T00171039 =
2019-01-19 07:52 METAR KCQX 191252Z AUTO VRB03KT 10SM OVC029 01/M03 A3024 RMK AO2 SLP243
                 T00111033 =
2019-01-19 07:32 METAR KCQX 191232Z AUTO 35003KT 10SM BKN029 BKN042 00/M03 A3024 RMK AO2
                 T00001033 =
2019-01-19 06:52 METAR KCQX 191152Z AUTO 34003KT 10SM FEW035 M01/M04 A3021 RMK AO2 SLP233 I6000
                 T10061039 10006 21028 51017 =
2019-01-19 05:52 METAR KCQX 191052Z AUTO 34004KT 10SM SCT036 01/M03 A3020 RMK AO2 SLP228
                 T00061033 =
2019-01-19 04:52 METAR KCQX 190952Z AUTO 00000KT 10SM OVC035 00/M03 A3019 RMK AO2 SLP224
                 T00001028 =
2019-01-19 03:52 METAR KCQX 190852Z AUTO 00000KT 7SM FEW028 BKN036 M02/M04 A3016 RMK AO2 SLP216
                 I1000 I3000 T10221039 53014 =
2019-01-19 02:52 METAR KCQX 190752Z AUTO 00000KT 8SM BKN050 M02/M03 A3015 RMK AO2 SLP211 I1000
                 T10171028 =

Support USWX by starting your Amazon purchase here.